sensor_id;sensor_type;location;lat;lon;timestamp;P1;durP1;ratioP1;P2;durP2;ratioP2
21837;SDS011;11081;45.946;6.140;2024-03-22T00:02:21;3.15;;;1.90;;
21837;SDS011;11081;45.946;6.140;2024-03-22T00:04:48;6.70;;;2.22;;
21837;SDS011;11081;45.946;6.140;2024-03-22T00:07:14;3.60;;;2.03;;
21837;SDS011;11081;45.946;6.140;2024-03-22T00:09:41;5.93;;;2.05;;
21837;SDS011;11081;45.946;6.140;2024-03-22T00:12:07;4.78;;;2.22;;
21837;SDS011;11081;45.946;6.140;2024-03-22T00:14:34;2.80;;;2.15;;
21837;SDS011;11081;45.946;6.140;2024-03-22T00:17:00;5.30;;;2.22;;
21837;SDS011;11081;45.946;6.140;2024-03-22T00:19:29;3.20;;;1.95;;
21837;SDS011;11081;45.946;6.140;2024-03-22T00:21:55;3.45;;;2.17;;
21837;SDS011;11081;45.946;6.140;2024-03-22T00:24:22;2.80;;;1.80;;
21837;SDS011;11081;45.946;6.140;2024-03-22T00:26:48;5.65;;;2.20;;
21837;SDS011;11081;45.946;6.140;2024-03-22T00:29:15;7.03;;;2.15;;
21837;SDS011;11081;45.946;6.140;2024-03-22T00:31:41;3.65;;;1.65;;
21837;SDS011;11081;45.946;6.140;2024-03-22T00:34:08;4.95;;;1.48;;
21837;SDS011;11081;45.946;6.140;2024-03-22T00:36:35;5.00;;;2.00;;
21837;SDS011;11081;45.946;6.140;2024-03-22T00:39:02;3.22;;;1.60;;
21837;SDS011;11081;45.946;6.140;2024-03-22T00:41:28;3.22;;;1.92;;
21837;SDS011;11081;45.946;6.140;2024-03-22T00:43:55;4.95;;;1.70;;
21837;SDS011;11081;45.946;6.140;2024-03-22T00:46:22;6.97;;;1.60;;
21837;SDS011;11081;45.946;6.140;2024-03-22T00:48:49;3.40;;;1.50;;
21837;SDS011;11081;45.946;6.140;2024-03-22T00:51:15;3.65;;;1.80;;
21837;SDS011;11081;45.946;6.140;2024-03-22T00:53:43;3.55;;;1.63;;
21837;SDS011;11081;45.946;6.140;2024-03-22T00:56:09;5.07;;;1.50;;
21837;SDS011;11081;45.946;6.140;2024-03-22T00:58:36;2.63;;;1.40;;
21837;SDS011;11081;45.946;6.140;2024-03-22T01:01:02;8.13;;;1.80;;
21837;SDS011;11081;45.946;6.140;2024-03-22T01:03:29;5.53;;;2.30;;
21837;SDS011;11081;45.946;6.140;2024-03-22T01:05:55;4.22;;;1.80;;
21837;SDS011;11081;45.946;6.140;2024-03-22T01:08:23;3.60;;;1.85;;
21837;SDS011;11081;45.946;6.140;2024-03-22T01:10:50;5.18;;;1.92;;
21837;SDS011;11081;45.946;6.140;2024-03-22T01:13:17;4.57;;;2.15;;
21837;SDS011;11081;45.946;6.140;2024-03-22T01:15:43;4.60;;;1.70;;
21837;SDS011;11081;45.946;6.140;2024-03-22T01:18:11;5.30;;;2.00;;
21837;SDS011;11081;45.946;6.140;2024-03-22T01:20:37;6.32;;;1.85;;
21837;SDS011;11081;45.946;6.140;2024-03-22T01:23:04;3.67;;;2.10;;
21837;SDS011;11081;45.946;6.140;2024-03-22T01:25:30;5.15;;;1.80;;
21837;SDS011;11081;45.946;6.140;2024-03-22T01:27:59;3.33;;;1.83;;
21837;SDS011;11081;45.946;6.140;2024-03-22T01:30:25;8.20;;;2.47;;
21837;SDS011;11081;45.946;6.140;2024-03-22T01:32:53;3.70;;;1.90;;
21837;SDS011;11081;45.946;6.140;2024-03-22T01:35:20;2.90;;;2.05;;
21837;SDS011;11081;45.946;6.140;2024-03-22T01:37:47;4.43;;;1.80;;
21837;SDS011;11081;45.946;6.140;2024-03-22T01:40:13;4.32;;;2.03;;
21837;SDS011;11081;45.946;6.140;2024-03-22T01:42:40;4.97;;;1.65;;
21837;SDS011;11081;45.946;6.140;2024-03-22T01:45:08;6.88;;;1.83;;
21837;SDS011;11081;45.946;6.140;2024-03-22T01:47:35;4.43;;;1.80;;
21837;SDS011;11081;45.946;6.140;2024-03-22T01:50:01;4.10;;;1.95;;
21837;SDS011;11081;45.946;6.140;2024-03-22T01:52:29;5.85;;;1.83;;
21837;SDS011;11081;45.946;6.140;2024-03-22T01:54:55;5.20;;;2.22;;
21837;SDS011;11081;45.946;6.140;2024-03-22T01:57:22;7.35;;;2.25;;
21837;SDS011;11081;45.946;6.140;2024-03-22T01:59:49;6.18;;;2.03;;
21837;SDS011;11081;45.946;6.140;2024-03-22T02:02:19;9.88;;;2.22;;
21837;SDS011;11081;45.946;6.140;2024-03-22T02:04:45;3.97;;;2.00;;
21837;SDS011;11081;45.946;6.140;2024-03-22T02:07:12;3.83;;;1.77;;
21837;SDS011;11081;45.946;6.140;2024-03-22T02:09:38;6.65;;;2.20;;
21837;SDS011;11081;45.946;6.140;2024-03-22T02:12:05;4.97;;;2.05;;
21837;SDS011;11081;45.946;6.140;2024-03-22T02:14:32;4.20;;;2.17;;
21837;SDS011;11081;45.946;6.140;2024-03-22T02:16:58;5.75;;;1.90;;
21837;SDS011;11081;45.946;6.140;2024-03-22T02:19:26;5.43;;;2.00;;
21837;SDS011;11081;45.946;6.140;2024-03-22T02:21:53;4.38;;;1.92;;
21837;SDS011;11081;45.946;6.140;2024-03-22T02:24:20;4.30;;;1.80;;
21837;SDS011;11081;45.946;6.140;2024-03-22T02:26:47;4.40;;;2.00;;
21837;SDS011;11081;45.946;6.140;2024-03-22T02:29:14;5.47;;;1.73;;
21837;SDS011;11081;45.946;6.140;2024-03-22T02:31:40;6.97;;;1.98;;
21837;SDS011;11081;45.946;6.140;2024-03-22T02:34:07;5.50;;;1.75;;
21837;SDS011;11081;45.946;6.140;2024-03-22T02:36:33;7.38;;;1.92;;
21837;SDS011;11081;45.946;6.140;2024-03-22T02:39:01;7.18;;;1.80;;
21837;SDS011;11081;45.946;6.140;2024-03-22T02:41:28;7.07;;;2.08;;
21837;SDS011;11081;45.946;6.140;2024-03-22T02:43:55;5.57;;;1.88;;
21837;SDS011;11081;45.946;6.140;2024-03-22T02:46:22;4.50;;;1.65;;
21837;SDS011;11081;45.946;6.140;2024-03-22T02:48:49;6.95;;;1.95;;
21837;SDS011;11081;45.946;6.140;2024-03-22T02:51:15;4.45;;;1.95;;
21837;SDS011;11081;45.946;6.140;2024-03-22T02:53:42;6.10;;;2.03;;
21837;SDS011;11081;45.946;6.140;2024-03-22T02:56:08;5.68;;;1.60;;
21837;SDS011;11081;45.946;6.140;2024-03-22T02:58:36;4.93;;;2.00;;
21837;SDS011;11081;45.946;6.140;2024-03-22T03:01:03;3.92;;;2.13;;
21837;SDS011;11081;45.946;6.140;2024-03-22T03:03:31;6.88;;;2.10;;
21837;SDS011;11081;45.946;6.140;2024-03-22T03:05:57;6.25;;;2.10;;
21837;SDS011;11081;45.946;6.140;2024-03-22T03:08:24;7.75;;;2.28;;
21837;SDS011;11081;45.946;6.140;2024-03-22T03:10:50;5.38;;;1.95;;
21837;SDS011;11081;45.946;6.140;2024-03-22T03:13:17;7.18;;;1.70;;
21837;SDS011;11081;45.946;6.140;2024-03-22T03:15:44;6.18;;;1.95;;
21837;SDS011;11081;45.946;6.140;2024-03-22T03:18:11;5.07;;;1.70;;
21837;SDS011;11081;45.946;6.140;2024-03-22T03:20:38;5.78;;;1.98;;
21837;SDS011;11081;45.946;6.140;2024-03-22T03:23:04;6.07;;;1.67;;
21837;SDS011;11081;45.946;6.140;2024-03-22T03:25:31;4.38;;;1.63;;
21837;SDS011;11081;45.946;6.140;2024-03-22T03:27:57;3.63;;;1.40;;
21837;SDS011;11081;45.946;6.140;2024-03-22T03:30:24;4.10;;;1.70;;
21837;SDS011;11081;45.946;6.140;2024-03-22T03:32:52;5.63;;;1.70;;
21837;SDS011;11081;45.946;6.140;2024-03-22T03:35:19;3.97;;;1.77;;
21837;SDS011;11081;45.946;6.140;2024-03-22T03:37:45;6.03;;;1.67;;
21837;SDS011;11081;45.946;6.140;2024-03-22T03:40:12;3.92;;;1.50;;
21837;SDS011;11081;45.946;6.140;2024-03-22T03:42:38;5.35;;;1.88;;
21837;SDS011;11081;45.946;6.140;2024-03-22T03:45:06;5.68;;;2.03;;
21837;SDS011;11081;45.946;6.140;2024-03-22T03:47:32;6.10;;;1.90;;
21837;SDS011;11081;45.946;6.140;2024-03-22T03:50:01;3.75;;;2.08;;
21837;SDS011;11081;45.946;6.140;2024-03-22T03:52:27;5.95;;;1.75;;
21837;SDS011;11081;45.946;6.140;2024-03-22T03:54:54;2.95;;;1.95;;
21837;SDS011;11081;45.946;6.140;2024-03-22T03:57:20;6.20;;;1.73;;
21837;SDS011;11081;45.946;6.140;2024-03-22T03:59:47;5.70;;;1.98;;
21837;SDS011;11081;45.946;6.140;2024-03-22T04:02:13;4.05;;;1.80;;
21837;SDS011;11081;45.946;6.140;2024-03-22T04:04:40;3.70;;;1.85;;
21837;SDS011;11081;45.946;6.140;2024-03-22T04:07:08;7.57;;;2.03;;
21837;SDS011;11081;45.946;6.140;2024-03-22T04:09:35;3.65;;;1.70;;
21837;SDS011;11081;45.946;6.140;2024-03-22T04:12:01;4.07;;;1.70;;
21837;SDS011;11081;45.946;6.140;2024-03-22T04:14:28;4.65;;;1.60;;
21837;SDS011;11081;45.946;6.140;2024-03-22T04:16:54;1.88;;;1.60;;
21837;SDS011;11081;45.946;6.140;2024-03-22T04:19:21;2.78;;;1.70;;
21837;SDS011;11081;45.946;6.140;2024-03-22T04:21:47;2.80;;;1.55;;
21837;SDS011;11081;45.946;6.140;2024-03-22T04:24:17;8.32;;;1.98;;
21837;SDS011;11081;45.946;6.140;2024-03-22T04:26:43;6.28;;;1.98;;
21837;SDS011;11081;45.946;6.140;2024-03-22T04:29:10;2.47;;;1.75;;
21837;SDS011;11081;45.946;6.140;2024-03-22T04:31:36;5.10;;;1.73;;
21837;SDS011;11081;45.946;6.140;2024-03-22T04:34:03;3.30;;;1.67;;
21837;SDS011;11081;45.946;6.140;2024-03-22T04:36:31;3.20;;;1.48;;
21837;SDS011;11081;45.946;6.140;2024-03-22T04:38:58;5.90;;;1.40;;
21837;SDS011;11081;45.946;6.140;2024-03-22T04:41:26;4.00;;;1.60;;
21837;SDS011;11081;45.946;6.140;2024-03-22T04:43:52;6.40;;;1.70;;
21837;SDS011;11081;45.946;6.140;2024-03-22T04:46:19;6.72;;;1.67;;
21837;SDS011;11081;45.946;6.140;2024-03-22T04:48:46;4.97;;;1.50;;
21837;SDS011;11081;45.946;6.140;2024-03-22T04:51:12;2.67;;;1.42;;
21837;SDS011;11081;45.946;6.140;2024-03-22T04:53:39;3.97;;;1.55;;
21837;SDS011;11081;45.946;6.140;2024-03-22T04:56:06;3.95;;;1.63;;
21837;SDS011;11081;45.946;6.140;2024-03-22T04:58:36;4.57;;;1.80;;
21837;SDS011;11081;45.946;6.140;2024-03-22T05:01:02;4.25;;;1.70;;
21837;SDS011;11081;45.946;6.140;2024-03-22T05:03:29;4.80;;;1.33;;
21837;SDS011;11081;45.946;6.140;2024-03-22T05:05:55;2.33;;;1.30;;
21837;SDS011;11081;45.946;6.140;2024-03-22T05:08:22;4.82;;;1.65;;
21837;SDS011;11081;45.946;6.140;2024-03-22T05:10:49;7.10;;;2.10;;
21837;SDS011;11081;45.946;6.140;2024-03-22T05:13:16;3.20;;;1.80;;
21837;SDS011;11081;45.946;6.140;2024-03-22T05:15:43;2.97;;;1.52;;
21837;SDS011;11081;45.946;6.140;2024-03-22T05:18:10;4.60;;;1.92;;
21837;SDS011;11081;45.946;6.140;2024-03-22T05:20:36;4.43;;;1.55;;
21837;SDS011;11081;45.946;6.140;2024-03-22T05:23:03;6.15;;;2.00;;
21837;SDS011;11081;45.946;6.140;2024-03-22T05:25:29;3.42;;;1.50;;
21837;SDS011;11081;45.946;6.140;2024-03-22T05:27:56;2.75;;;1.70;;
21837;SDS011;11081;45.946;6.140;2024-03-22T05:30:22;4.25;;;1.38;;
21837;SDS011;11081;45.946;6.140;2024-03-22T05:32:50;5.40;;;1.70;;
21837;SDS011;11081;45.946;6.140;2024-03-22T05:35:16;6.70;;;1.77;;
21837;SDS011;11081;45.946;6.140;2024-03-22T05:37:44;3.13;;;1.40;;
21837;SDS011;11081;45.946;6.140;2024-03-22T05:40:10;2.22;;;1.20;;
21837;SDS011;11081;45.946;6.140;2024-03-22T05:42:38;5.53;;;1.70;;
21837;SDS011;11081;45.946;6.140;2024-03-22T05:45:04;4.93;;;1.67;;
21837;SDS011;11081;45.946;6.140;2024-03-22T05:47:32;6.22;;;2.00;;
21837;SDS011;11081;45.946;6.140;2024-03-22T05:50:00;2.65;;;1.55;;
21837;SDS011;11081;45.946;6.140;2024-03-22T05:52:27;7.53;;;1.88;;
21837;SDS011;11081;45.946;6.140;2024-03-22T05:54:53;3.45;;;1.50;;
21837;SDS011;11081;45.946;6.140;2024-03-22T05:57:21;3.08;;;1.80;;
21837;SDS011;11081;45.946;6.140;2024-03-22T05:59:47;3.78;;;1.80;;
21837;SDS011;11081;45.946;6.140;2024-03-22T06:02:14;4.68;;;2.28;;
21837;SDS011;11081;45.946;6.140;2024-03-22T06:04:40;3.88;;;1.83;;
21837;SDS011;11081;45.946;6.140;2024-03-22T06:07:09;2.97;;;1.90;;
21837;SDS011;11081;45.946;6.140;2024-03-22T06:09:35;2.70;;;1.95;;
21837;SDS011;11081;45.946;6.140;2024-03-22T06:12:11;6.20;;;1.92;;
21837;SDS011;11081;45.946;6.140;2024-03-22T06:14:37;3.25;;;1.90;;
21837;SDS011;11081;45.946;6.140;2024-03-22T06:17:04;6.75;;;2.40;;
21837;SDS011;11081;45.946;6.140;2024-03-22T06:19:30;5.40;;;1.70;;
21837;SDS011;11081;45.946;6.140;2024-03-22T06:21:57;3.75;;;1.40;;
21837;SDS011;11081;45.946;6.140;2024-03-22T06:24:25;4.28;;;1.50;;
21837;SDS011;11081;45.946;6.140;2024-03-22T06:26:52;5.45;;;1.90;;
21837;SDS011;11081;45.946;6.140;2024-03-22T06:29:18;4.28;;;1.67;;
21837;SDS011;11081;45.946;6.140;2024-03-22T06:31:46;5.80;;;1.85;;
21837;SDS011;11081;45.946;6.140;2024-03-22T06:34:12;4.30;;;2.20;;
21837;SDS011;11081;45.946;6.140;2024-03-22T06:36:39;6.50;;;1.83;;
21837;SDS011;11081;45.946;6.140;2024-03-22T06:39:05;4.18;;;1.67;;
21837;SDS011;11081;45.946;6.140;2024-03-22T06:41:36;5.63;;;1.95;;
21837;SDS011;11081;45.946;6.140;2024-03-22T06:44:03;3.15;;;1.55;;
21837;SDS011;11081;45.946;6.140;2024-03-22T06:46:30;8.07;;;1.63;;
21837;SDS011;11081;45.946;6.140;2024-03-22T06:48:57;5.32;;;2.03;;
21837;SDS011;11081;45.946;6.140;2024-03-22T06:51:24;7.32;;;2.15;;
21837;SDS011;11081;45.946;6.140;2024-03-22T06:53:50;11.98;;;2.13;;
21837;SDS011;11081;45.946;6.140;2024-03-22T06:56:17;5.35;;;2.20;;
21837;SDS011;11081;45.946;6.140;2024-03-22T06:58:44;7.95;;;1.70;;
21837;SDS011;11081;45.946;6.140;2024-03-22T07:01:12;5.47;;;2.00;;
21837;SDS011;11081;45.946;6.140;2024-03-22T07:03:38;6.32;;;1.80;;
21837;SDS011;11081;45.946;6.140;2024-03-22T07:06:05;6.38;;;1.77;;
21837;SDS011;11081;45.946;6.140;2024-03-22T07:08:33;5.78;;;1.80;;
21837;SDS011;11081;45.946;6.140;2024-03-22T07:11:04;5.60;;;2.08;;
21837;SDS011;11081;45.946;6.140;2024-03-22T07:13:30;4.93;;;2.03;;
21837;SDS011;11081;45.946;6.140;2024-03-22T07:15:59;4.68;;;2.13;;
21837;SDS011;11081;45.946;6.140;2024-03-22T07:18:25;4.63;;;2.47;;
21837;SDS011;11081;45.946;6.140;2024-03-22T07:20:52;10.27;;;2.47;;
21837;SDS011;11081;45.946;6.140;2024-03-22T07:23:18;6.05;;;2.45;;
21837;SDS011;11081;45.946;6.140;2024-03-22T07:25:46;10.68;;;2.78;;
21837;SDS011;11081;45.946;6.140;2024-03-22T07:28:13;3.83;;;2.53;;
21837;SDS011;11081;45.946;6.140;2024-03-22T07:30:41;6.60;;;2.65;;
21837;SDS011;11081;45.946;6.140;2024-03-22T07:33:09;4.93;;;1.90;;
21837;SDS011;11081;45.946;6.140;2024-03-22T07:35:38;5.10;;;1.70;;
21837;SDS011;11081;45.946;6.140;2024-03-22T07:38:04;10.15;;;2.35;;
21837;SDS011;11081;45.946;6.140;2024-03-22T07:40:32;5.78;;;2.15;;
21837;SDS011;11081;45.946;6.140;2024-03-22T07:42:58;4.32;;;2.30;;
21837;SDS011;11081;45.946;6.140;2024-03-22T07:45:31;8.55;;;2.40;;
21837;SDS011;11081;45.946;6.140;2024-03-22T07:47:57;5.82;;;2.33;;
21837;SDS011;11081;45.946;6.140;2024-03-22T07:50:26;4.82;;;2.03;;
21837;SDS011;11081;45.946;6.140;2024-03-22T07:52:53;6.25;;;2.25;;
21837;SDS011;11081;45.946;6.140;2024-03-22T07:55:20;3.25;;;1.63;;
21837;SDS011;11081;45.946;6.140;2024-03-22T07:57:46;7.05;;;2.13;;
21837;SDS011;11081;45.946;6.140;2024-03-22T08:00:13;2.88;;;1.70;;
21837;SDS011;11081;45.946;6.140;2024-03-22T08:02:39;4.85;;;2.17;;
21837;SDS011;11081;45.946;6.140;2024-03-22T08:05:09;5.25;;;2.05;;
21837;SDS011;11081;45.946;6.140;2024-03-22T08:07:36;7.35;;;2.05;;
21837;SDS011;11081;45.946;6.140;2024-03-22T08:10:04;7.03;;;3.28;;
21837;SDS011;11081;45.946;6.140;2024-03-22T08:12:30;7.22;;;2.95;;
21837;SDS011;11081;45.946;6.140;2024-03-22T08:14:57;6.57;;;3.40;;
21837;SDS011;11081;45.946;6.140;2024-03-22T08:17:23;7.80;;;3.33;;
21837;SDS011;11081;45.946;6.140;2024-03-22T08:19:50;6.35;;;3.00;;
21837;SDS011;11081;45.946;6.140;2024-03-22T08:22:16;7.65;;;3.88;;
21837;SDS011;11081;45.946;6.140;2024-03-22T08:24:45;9.27;;;3.42;;
21837;SDS011;11081;45.946;6.140;2024-03-22T08:27:11;8.50;;;3.15;;
21837;SDS011;11081;45.946;6.140;2024-03-22T08:29:39;10.30;;;3.05;;
21837;SDS011;11081;45.946;6.140;2024-03-22T08:32:06;8.60;;;2.30;;
21837;SDS011;11081;45.946;6.140;2024-03-22T08:34:33;4.43;;;2.25;;
21837;SDS011;11081;45.946;6.140;2024-03-22T08:36:59;8.65;;;2.90;;
21837;SDS011;11081;45.946;6.140;2024-03-22T08:39:29;7.25;;;3.60;;
21837;SDS011;11081;45.946;6.140;2024-03-22T08:41:56;8.43;;;2.97;;
21837;SDS011;11081;45.946;6.140;2024-03-22T08:44:23;7.97;;;2.67;;
21837;SDS011;11081;45.946;6.140;2024-03-22T08:46:49;9.23;;;3.42;;
21837;SDS011;11081;45.946;6.140;2024-03-22T08:49:17;8.13;;;3.03;;
21837;SDS011;11081;45.946;6.140;2024-03-22T08:51:44;6.60;;;3.10;;
21837;SDS011;11081;45.946;6.140;2024-03-22T08:54:13;7.68;;;3.00;;
21837;SDS011;11081;45.946;6.140;2024-03-22T08:56:40;7.32;;;2.55;;
21837;SDS011;11081;45.946;6.140;2024-03-22T08:59:08;4.75;;;2.45;;
21837;SDS011;11081;45.946;6.140;2024-03-22T09:01:35;8.43;;;2.80;;
21837;SDS011;11081;45.946;6.140;2024-03-22T09:04:03;5.25;;;2.50;;
21837;SDS011;11081;45.946;6.140;2024-03-22T09:06:29;10.57;;;2.53;;
21837;SDS011;11081;45.946;6.140;2024-03-22T09:08:56;6.15;;;2.17;;
21837;SDS011;11081;45.946;6.140;2024-03-22T09:11:23;4.78;;;2.30;;
21837;SDS011;11081;45.946;6.140;2024-03-22T09:13:51;5.18;;;2.30;;
21837;SDS011;11081;45.946;6.140;2024-03-22T09:16:19;7.53;;;2.88;;
21837;SDS011;11081;45.946;6.140;2024-03-22T09:18:46;9.27;;;2.15;;
21837;SDS011;11081;45.946;6.140;2024-03-22T09:21:12;3.67;;;1.77;;
21837;SDS011;11081;45.946;6.140;2024-03-22T09:23:39;3.67;;;1.77;;
21837;SDS011;11081;45.946;6.140;2024-03-22T09:26:05;5.90;;;2.75;;
21837;SDS011;11081;45.946;6.140;2024-03-22T09:28:32;6.45;;;2.55;;
21837;SDS011;11081;45.946;6.140;2024-03-22T09:31:02;6.93;;;2.50;;
21837;SDS011;11081;45.946;6.140;2024-03-22T09:33:32;6.97;;;2.45;;
21837;SDS011;11081;45.946;6.140;2024-03-22T09:35:58;6.68;;;2.30;;
21837;SDS011;11081;45.946;6.140;2024-03-22T09:38:25;7.78;;;2.05;;
21837;SDS011;11081;45.946;6.140;2024-03-22T09:40:52;3.58;;;1.92;;
21837;SDS011;11081;45.946;6.140;2024-03-22T09:43:20;3.95;;;1.60;;
21837;SDS011;11081;45.946;6.140;2024-03-22T09:45:46;5.78;;;1.60;;
21837;SDS011;11081;45.946;6.140;2024-03-22T09:48:14;4.00;;;1.83;;
21837;SDS011;11081;45.946;6.140;2024-03-22T09:50:41;6.35;;;1.58;;
21837;SDS011;11081;45.946;6.140;2024-03-22T09:53:09;7.00;;;1.50;;
21837;SDS011;11081;45.946;6.140;2024-03-22T09:55:36;3.40;;;1.50;;
21837;SDS011;11081;45.946;6.140;2024-03-22T09:58:05;6.28;;;1.98;;
21837;SDS011;11081;45.946;6.140;2024-03-22T10:00:31;2.83;;;1.95;;
21837;SDS011;11081;45.946;6.140;2024-03-22T10:02:58;4.95;;;1.83;;
21837;SDS011;11081;45.946;6.140;2024-03-22T10:05:25;4.93;;;1.90;;
21837;SDS011;11081;45.946;6.140;2024-03-22T10:07:53;8.25;;;1.52;;
21837;SDS011;11081;45.946;6.140;2024-03-22T10:10:20;3.50;;;1.70;;
21837;SDS011;11081;45.946;6.140;2024-03-22T10:12:47;8.57;;;1.65;;
21837;SDS011;11081;45.946;6.140;2024-03-22T10:15:13;4.88;;;1.92;;
21837;SDS011;11081;45.946;6.140;2024-03-22T10:17:42;3.97;;;1.65;;
21837;SDS011;11081;45.946;6.140;2024-03-22T10:20:08;3.45;;;1.80;;
21837;SDS011;11081;45.946;6.140;2024-03-22T10:22:41;5.75;;;1.83;;
21837;SDS011;11081;45.946;6.140;2024-03-22T10:25:09;6.60;;;1.75;;
21837;SDS011;11081;45.946;6.140;2024-03-22T10:27:37;5.57;;;1.83;;
21837;SDS011;11081;45.946;6.140;2024-03-22T10:30:05;3.88;;;1.88;;
21837;SDS011;11081;45.946;6.140;2024-03-22T10:32:35;5.20;;;1.50;;
21837;SDS011;11081;45.946;6.140;2024-03-22T10:35:02;4.85;;;1.70;;
21837;SDS011;11081;45.946;6.140;2024-03-22T10:37:32;6.38;;;1.98;;
21837;SDS011;11081;45.946;6.140;2024-03-22T10:40:00;4.38;;;2.10;;
21837;SDS011;11081;45.946;6.140;2024-03-22T10:42:34;3.83;;;1.52;;
21837;SDS011;11081;45.946;6.140;2024-03-22T10:45:01;2.50;;;1.73;;
21837;SDS011;11081;45.946;6.140;2024-03-22T10:47:29;4.82;;;1.70;;
21837;SDS011;11081;45.946;6.140;2024-03-22T10:49:57;6.50;;;1.83;;
21837;SDS011;11081;45.946;6.140;2024-03-22T10:52:28;3.15;;;1.40;;
21837;SDS011;11081;45.946;6.140;2024-03-22T10:54:55;7.53;;;1.70;;
21837;SDS011;11081;45.946;6.140;2024-03-22T10:57:23;5.00;;;1.88;;
21837;SDS011;11081;45.946;6.140;2024-03-22T10:59:50;5.18;;;1.90;;
21837;SDS011;11081;45.946;6.140;2024-03-22T11:02:23;5.28;;;2.25;;
21837;SDS011;11081;45.946;6.140;2024-03-22T11:04:53;6.32;;;2.17;;
21837;SDS011;11081;45.946;6.140;2024-03-22T11:07:22;6.70;;;1.85;;
21837;SDS011;11081;45.946;6.140;2024-03-22T11:09:55;7.05;;;1.73;;
21837;SDS011;11081;45.946;6.140;2024-03-22T11:12:23;4.07;;;1.85;;
21837;SDS011;11081;45.946;6.140;2024-03-22T11:14:52;3.20;;;1.52;;
21837;SDS011;11081;45.946;6.140;2024-03-22T11:17:19;5.70;;;1.52;;
21837;SDS011;11081;45.946;6.140;2024-03-22T11:19:48;5.32;;;1.90;;
21837;SDS011;11081;45.946;6.140;2024-03-22T11:22:15;7.18;;;1.60;;
21837;SDS011;11081;45.946;6.140;2024-03-22T11:24:41;3.80;;;1.45;;
21837;SDS011;11081;45.946;6.140;2024-03-22T11:27:09;1.95;;;1.27;;
21837;SDS011;11081;45.946;6.140;2024-03-22T11:29:38;8.95;;;1.80;;
21837;SDS011;11081;45.946;6.140;2024-03-22T11:32:08;5.45;;;1.35;;
21837;SDS011;11081;45.946;6.140;2024-03-22T11:34:34;5.30;;;1.70;;
21837;SDS011;11081;45.946;6.140;2024-03-22T11:37:01;3.85;;;1.70;;
21837;SDS011;11081;45.946;6.140;2024-03-22T11:39:28;5.53;;;1.50;;
21837;SDS011;11081;45.946;6.140;2024-03-22T11:41:55;4.97;;;1.80;;
21837;SDS011;11081;45.946;6.140;2024-03-22T11:44:22;3.47;;;1.50;;
21837;SDS011;11081;45.946;6.140;2024-03-22T11:46:51;5.65;;;1.55;;
21837;SDS011;11081;45.946;6.140;2024-03-22T11:49:18;5.13;;;1.42;;
21837;SDS011;11081;45.946;6.140;2024-03-22T11:51:46;2.60;;;1.10;;
21837;SDS011;11081;45.946;6.140;2024-03-22T11:54:12;4.05;;;1.30;;
21837;SDS011;11081;45.946;6.140;2024-03-22T11:56:39;3.60;;;1.20;;
21837;SDS011;11081;45.946;6.140;2024-03-22T11:59:06;2.53;;;1.15;;
21837;SDS011;11081;45.946;6.140;2024-03-22T12:01:33;2.13;;;1.00;;
21837;SDS011;11081;45.946;6.140;2024-03-22T12:03:59;3.10;;;1.33;;
21837;SDS011;11081;45.946;6.140;2024-03-22T12:06:28;1.52;;;0.90;;
21837;SDS011;11081;45.946;6.140;2024-03-22T12:08:54;1.70;;;0.95;;
21837;SDS011;11081;45.946;6.140;2024-03-22T12:11:21;3.50;;;1.00;;
21837;SDS011;11081;45.946;6.140;2024-03-22T12:13:47;2.72;;;1.20;;
21837;SDS011;11081;45.946;6.140;2024-03-22T12:16:14;2.83;;;1.17;;
21837;SDS011;11081;45.946;6.140;2024-03-22T12:18:40;1.45;;;0.90;;
21837;SDS011;11081;45.946;6.140;2024-03-22T12:21:07;1.83;;;0.93;;
21837;SDS011;11081;45.946;6.140;2024-03-22T12:23:34;2.40;;;0.95;;
21837;SDS011;11081;45.946;6.140;2024-03-22T12:26:01;3.92;;;1.38;;
21837;SDS011;11081;45.946;6.140;2024-03-22T12:28:27;2.05;;;0.85;;
21837;SDS011;11081;45.946;6.140;2024-03-22T12:30:54;1.33;;;0.88;;
21837;SDS011;11081;45.946;6.140;2024-03-22T12:33:20;1.77;;;0.95;;
21837;SDS011;11081;45.946;6.140;2024-03-22T12:35:47;2.72;;;1.23;;
21837;SDS011;11081;45.946;6.140;2024-03-22T12:38:13;4.13;;;1.30;;
21837;SDS011;11081;45.946;6.140;2024-03-22T12:40:42;2.88;;;1.17;;
21837;SDS011;11081;45.946;6.140;2024-03-22T12:43:09;2.75;;;1.15;;
21837;SDS011;11081;45.946;6.140;2024-03-22T12:45:36;4.15;;;1.10;;
21837;SDS011;11081;45.946;6.140;2024-03-22T12:48:03;2.58;;;0.93;;
21837;SDS011;11081;45.946;6.140;2024-03-22T12:50:30;4.88;;;1.20;;
21837;SDS011;11081;45.946;6.140;2024-03-22T12:52:56;2.92;;;0.98;;
21837;SDS011;11081;45.946;6.140;2024-03-22T12:55:23;1.40;;;1.05;;
21837;SDS011;11081;45.946;6.140;2024-03-22T12:57:52;11.80;;;1.35;;
21837;SDS011;11081;45.946;6.140;2024-03-22T13:00:19;2.95;;;1.20;;
21837;SDS011;11081;45.946;6.140;2024-03-22T13:02:46;3.75;;;1.27;;
21837;SDS011;11081;45.946;6.140;2024-03-22T13:05:13;2.47;;;1.33;;
21837;SDS011;11081;45.946;6.140;2024-03-22T13:07:40;6.28;;;1.52;;
21837;SDS011;11081;45.946;6.140;2024-03-22T13:10:08;3.70;;;1.10;;
21837;SDS011;11081;45.946;6.140;2024-03-22T13:12:34;3.88;;;0.90;;
21837;SDS011;11081;45.946;6.140;2024-03-22T13:15:03;3.47;;;0.90;;
21837;SDS011;11081;45.946;6.140;2024-03-22T13:17:30;6.43;;;1.30;;
21837;SDS011;11081;45.946;6.140;2024-03-22T13:19:57;5.63;;;1.55;;
21837;SDS011;11081;45.946;6.140;2024-03-22T13:22:23;4.18;;;1.17;;
21837;SDS011;11081;45.946;6.140;2024-03-22T13:24:50;1.48;;;0.90;;
21837;SDS011;11081;45.946;6.140;2024-03-22T13:27:16;3.22;;;1.13;;
21837;SDS011;11081;45.946;6.140;2024-03-22T13:29:45;1.90;;;0.80;;
21837;SDS011;11081;45.946;6.140;2024-03-22T13:32:13;2.15;;;1.30;;
21837;SDS011;11081;45.946;6.140;2024-03-22T13:34:40;2.38;;;1.10;;
21837;SDS011;11081;45.946;6.140;2024-03-22T13:37:07;6.15;;;1.20;;
21837;SDS011;11081;45.946;6.140;2024-03-22T13:39:35;2.40;;;1.20;;
21837;SDS011;11081;45.946;6.140;2024-03-22T13:42:01;3.25;;;1.20;;
21837;SDS011;11081;45.946;6.140;2024-03-22T13:44:28;2.65;;;0.93;;
21837;SDS011;11081;45.946;6.140;2024-03-22T13:46:54;2.13;;;1.10;;
21837;SDS011;11081;45.946;6.140;2024-03-22T13:49:23;3.78;;;1.13;;
21837;SDS011;11081;45.946;6.140;2024-03-22T13:51:49;2.97;;;0.82;;
21837;SDS011;11081;45.946;6.140;2024-03-22T13:54:16;2.08;;;0.95;;
21837;SDS011;11081;45.946;6.140;2024-03-22T13:56:42;2.42;;;1.02;;
21837;SDS011;11081;45.946;6.140;2024-03-22T13:59:09;2.30;;;0.82;;
21837;SDS011;11081;45.946;6.140;2024-03-22T14:01:36;3.10;;;1.13;;
21837;SDS011;11081;45.946;6.140;2024-03-22T14:04:04;2.58;;;0.80;;
21837;SDS011;11081;45.946;6.140;2024-03-22T14:06:32;5.03;;;0.80;;
21837;SDS011;11081;45.946;6.140;2024-03-22T14:08:59;1.30;;;1.00;;
21837;SDS011;11081;45.946;6.140;2024-03-22T14:11:26;3.05;;;1.02;;
21837;SDS011;11081;45.946;6.140;2024-03-22T14:13:55;4.75;;;0.95;;
21837;SDS011;11081;45.946;6.140;2024-03-22T14:16:22;3.65;;;1.20;;
21837;SDS011;11081;45.946;6.140;2024-03-22T14:18:49;2.15;;;0.93;;
21837;SDS011;11081;45.946;6.140;2024-03-22T14:21:15;2.80;;;0.93;;
21837;SDS011;11081;45.946;6.140;2024-03-22T14:23:46;1.27;;;0.98;;
21837;SDS011;11081;45.946;6.140;2024-03-22T14:26:13;2.58;;;1.20;;
21837;SDS011;11081;45.946;6.140;2024-03-22T14:28:40;3.65;;;1.23;;
21837;SDS011;11081;45.946;6.140;2024-03-22T14:31:07;1.60;;;0.70;;
21837;SDS011;11081;45.946;6.140;2024-03-22T14:33:34;2.90;;;1.10;;
21837;SDS011;11081;45.946;6.140;2024-03-22T14:36:01;3.67;;;0.80;;
21837;SDS011;11081;45.946;6.140;2024-03-22T14:38:28;2.20;;;1.00;;
21837;SDS011;11081;45.946;6.140;2024-03-22T14:40:55;1.58;;;1.00;;
21837;SDS011;11081;45.946;6.140;2024-03-22T14:43:23;1.13;;;0.77;;
21837;SDS011;11081;45.946;6.140;2024-03-22T14:45:50;2.20;;;1.10;;
21837;SDS011;11081;45.946;6.140;2024-03-22T14:48:18;1.90;;;1.05;;